sensor_id;sensor_type;location;lat;lon;timestamp;temperature;humidity
7472;DHT22;3777;48.722;8.110;2023-09-08T00:00:27;19.60;99.90
7472;DHT22;3777;48.722;8.110;2023-09-08T00:02:54;19.60;99.90
7472;DHT22;3777;48.722;8.110;2023-09-08T00:05:21;19.60;99.90
7472;DHT22;3777;48.722;8.110;2023-09-08T00:07:48;19.60;99.90
7472;DHT22;3777;48.722;8.110;2023-09-08T00:10:16;19.60;99.90
7472;DHT22;3777;48.722;8.110;2023-09-08T00:12:44;19.60;99.90
7472;DHT22;3777;48.722;8.110;2023-09-08T00:15:11;19.50;99.90
7472;DHT22;3777;48.722;8.110;2023-09-08T00:17:38;19.50;99.90
7472;DHT22;3777;48.722;8.110;2023-09-08T00:20:06;19.50;99.90
7472;DHT22;3777;48.722;8.110;2023-09-08T00:22:35;19.50;99.90
7472;DHT22;3777;48.722;8.110;2023-09-08T00:25:02;19.50;99.90
7472;DHT22;3777;48.722;8.110;2023-09-08T00:27:30;19.50;99.90
7472;DHT22;3777;48.722;8.110;2023-09-08T00:29:58;19.50;99.90
7472;DHT22;3777;48.722;8.110;2023-09-08T00:32:27;19.50;99.90
7472;DHT22;3777;48.722;8.110;2023-09-08T00:34:54;19.50;99.90
7472;DHT22;3777;48.722;8.110;2023-09-08T00:37:21;19.40;99.90
7472;DHT22;3777;48.722;8.110;2023-09-08T00:39:48;19.40;99.90
7472;DHT22;3777;48.722;8.110;2023-09-08T00:42:17;19.40;99.90
7472;DHT22;3777;48.722;8.110;2023-09-08T00:44:47;19.40;99.90
7472;DHT22;3777;48.722;8.110;2023-09-08T00:47:16;19.30;99.90
7472;DHT22;3777;48.722;8.110;2023-09-08T00:49:44;19.30;99.90
7472;DHT22;3777;48.722;8.110;2023-09-08T00:52:12;19.20;99.90
7472;DHT22;3777;48.722;8.110;2023-09-08T00:54:39;19.20;99.90
7472;DHT22;3777;48.722;8.110;2023-09-08T00:57:06;19.20;99.90
7472;DHT22;3777;48.722;8.110;2023-09-08T00:59:33;19.20;99.90
7472;DHT22;3777;48.722;8.110;2023-09-08T01:02:02;19.10;99.90
7472;DHT22;3777;48.722;8.110;2023-09-08T01:04:30;19.10;99.90
7472;DHT22;3777;48.722;8.110;2023-09-08T01:06:59;19.10;99.90
7472;DHT22;3777;48.722;8.110;2023-09-08T01:09:26;19.10;99.90
7472;DHT22;3777;48.722;8.110;2023-09-08T01:11:54;19.10;99.90
7472;DHT22;3777;48.722;8.110;2023-09-08T01:14:27;19.10;99.90
7472;DHT22;3777;48.722;8.110;2023-09-08T01:16:54;19.10;99.90
7472;DHT22;3777;48.722;8.110;2023-09-08T01:19:21;19.10;99.90
7472;DHT22;3777;48.722;8.110;2023-09-08T01:22:23;19.00;99.90
7472;DHT22;3777;48.722;8.110;2023-09-08T01:25:09;19.10;99.90
7472;DHT22;3777;48.722;8.110;2023-09-08T01:27:43;19.00;99.90
7472;DHT22;3777;48.722;8.110;2023-09-08T01:30:12;19.00;99.90
7472;DHT22;3777;48.722;8.110;2023-09-08T01:32:40;19.00;99.90
7472;DHT22;3777;48.722;8.110;2023-09-08T01:35:08;19.00;99.90
7472;DHT22;3777;48.722;8.110;2023-09-08T01:37:35;19.00;99.90
7472;DHT22;3777;48.722;8.110;2023-09-08T01:40:03;18.90;99.90
7472;DHT22;3777;48.722;8.110;2023-09-08T01:42:31;18.90;99.90
7472;DHT22;3777;48.722;8.110;2023-09-08T01:44:58;18.90;99.90
7472;DHT22;3777;48.722;8.110;2023-09-08T01:47:27;18.90;99.90
7472;DHT22;3777;48.722;8.110;2023-09-08T01:49:54;18.90;99.90
7472;DHT22;3777;48.722;8.110;2023-09-08T01:52:21;18.90;99.90
7472;DHT22;3777;48.722;8.110;2023-09-08T01:54:48;18.90;99.90
7472;DHT22;3777;48.722;8.110;2023-09-08T01:57:15;18.90;99.90
7472;DHT22;3777;48.722;8.110;2023-09-08T01:59:43;18.80;99.90
7472;DHT22;3777;48.722;8.110;2023-09-08T02:02:11;18.90;99.90
7472;DHT22;3777;48.722;8.110;2023-09-08T02:04:38;18.90;99.90
7472;DHT22;3777;48.722;8.110;2023-09-08T02:07:05;18.90;99.90
7472;DHT22;3777;48.722;8.110;2023-09-08T02:09:31;18.80;99.90
7472;DHT22;3777;48.722;8.110;2023-09-08T02:11:59;18.80;99.90
7472;DHT22;3777;48.722;8.110;2023-09-08T02:14:26;18.80;99.90
7472;DHT22;3777;48.722;8.110;2023-09-08T02:16:54;18.80;99.90
7472;DHT22;3777;48.722;8.110;2023-09-08T02:19:22;18.70;99.90
7472;DHT22;3777;48.722;8.110;2023-09-08T02:21:49;18.70;99.90
7472;DHT22;3777;48.722;8.110;2023-09-08T02:24:16;18.70;99.90
7472;DHT22;3777;48.722;8.110;2023-09-08T02:26:43;18.60;99.90
7472;DHT22;3777;48.722;8.110;2023-09-08T02:29:10;18.60;99.90
7472;DHT22;3777;48.722;8.110;2023-09-08T02:31:37;18.60;99.90
7472;DHT22;3777;48.722;8.110;2023-09-08T02:34:06;18.60;99.90
7472;DHT22;3777;48.722;8.110;2023-09-08T02:36:33;18.60;99.90
7472;DHT22;3777;48.722;8.110;2023-09-08T02:39:00;18.60;99.90
7472;DHT22;3777;48.722;8.110;2023-09-08T02:41:26;18.50;99.90
7472;DHT22;3777;48.722;8.110;2023-09-08T02:43:53;18.50;99.90
7472;DHT22;3777;48.722;8.110;2023-09-08T02:46:20;18.50;99.90
7472;DHT22;3777;48.722;8.110;2023-09-08T02:48:47;18.50;99.90
7472;DHT22;3777;48.722;8.110;2023-09-08T02:51:16;18.50;99.90
7472;DHT22;3777;48.722;8.110;2023-09-08T02:53:42;18.50;99.90
7472;DHT22;3777;48.722;8.110;2023-09-08T02:56:09;18.40;99.90
7472;DHT22;3777;48.722;8.110;2023-09-08T02:58:36;18.40;99.90
7472;DHT22;3777;48.722;8.110;2023-09-08T03:01:11;18.40;99.90
7472;DHT22;3777;48.722;8.110;2023-09-08T03:03:39;18.30;99.90
7472;DHT22;3777;48.722;8.110;2023-09-08T03:06:06;18.30;99.90
7472;DHT22;3777;48.722;8.110;2023-09-08T03:08:35;18.20;99.90
7472;DHT22;3777;48.722;8.110;2023-09-08T03:11:03;18.20;99.90
7472;DHT22;3777;48.722;8.110;2023-09-08T03:13:31;18.20;99.90
7472;DHT22;3777;48.722;8.110;2023-09-08T03:16:02;18.20;99.90
7472;DHT22;3777;48.722;8.110;2023-09-08T03:18:29;18.20;99.90
7472;DHT22;3777;48.722;8.110;2023-09-08T03:20:58;18.20;99.90
7472;DHT22;3777;48.722;8.110;2023-09-08T03:23:26;18.20;99.90
7472;DHT22;3777;48.722;8.110;2023-09-08T03:25:54;18.20;99.90
7472;DHT22;3777;48.722;8.110;2023-09-08T03:28:21;18.20;99.90
7472;DHT22;3777;48.722;8.110;2023-09-08T03:30:48;18.20;99.90
7472;DHT22;3777;48.722;8.110;2023-09-08T03:33:15;18.20;99.90
7472;DHT22;3777;48.722;8.110;2023-09-08T03:35:42;18.20;99.90
7472;DHT22;3777;48.722;8.110;2023-09-08T03:38:10;18.20;99.90
7472;DHT22;3777;48.722;8.110;2023-09-08T03:40:37;18.10;99.90
7472;DHT22;3777;48.722;8.110;2023-09-08T03:43:05;18.10;99.90
7472;DHT22;3777;48.722;8.110;2023-09-08T03:45:32;18.10;99.90
7472;DHT22;3777;48.722;8.110;2023-09-08T03:47:59;18.10;99.90
7472;DHT22;3777;48.722;8.110;2023-09-08T03:50:26;18.10;99.90
7472;DHT22;3777;48.722;8.110;2023-09-08T03:52:53;18.10;99.90
7472;DHT22;3777;48.722;8.110;2023-09-08T03:55:20;18.10;99.90
7472;DHT22;3777;48.722;8.110;2023-09-08T03:57:47;18.00;99.90
7472;DHT22;3777;48.722;8.110;2023-09-08T04:00:16;18.00;99.90
7472;DHT22;3777;48.722;8.110;2023-09-08T04:02:47;18.00;99.90
7472;DHT22;3777;48.722;8.110;2023-09-08T04:05:14;18.00;99.90
7472;DHT22;3777;48.722;8.110;2023-09-08T04:07:41;18.00;99.90
7472;DHT22;3777;48.722;8.110;2023-09-08T04:10:08;18.00;99.90
7472;DHT22;3777;48.722;8.110;2023-09-08T04:12:35;17.90;99.90
7472;DHT22;3777;48.722;8.110;2023-09-08T04:15:03;17.90;99.90
7472;DHT22;3777;48.722;8.110;2023-09-08T04:17:31;17.90;99.90
7472;DHT22;3777;48.722;8.110;2023-09-08T04:19:59;17.90;99.90
7472;DHT22;3777;48.722;8.110;2023-09-08T04:22:26;17.90;99.90
7472;DHT22;3777;48.722;8.110;2023-09-08T04:24:53;17.90;99.90
7472;DHT22;3777;48.722;8.110;2023-09-08T04:27:21;17.90;99.90
7472;DHT22;3777;48.722;8.110;2023-09-08T04:29:48;17.80;99.90
7472;DHT22;3777;48.722;8.110;2023-09-08T04:32:15;17.80;99.90
7472;DHT22;3777;48.722;8.110;2023-09-08T04:34:44;17.80;99.90
7472;DHT22;3777;48.722;8.110;2023-09-08T04:37:11;17.80;99.90
7472;DHT22;3777;48.722;8.110;2023-09-08T04:39:38;17.80;99.90
7472;DHT22;3777;48.722;8.110;2023-09-08T04:42:05;17.70;99.90
7472;DHT22;3777;48.722;8.110;2023-09-08T04:44:32;17.70;99.90
7472;DHT22;3777;48.722;8.110;2023-09-08T04:46:59;17.70;99.90
7472;DHT22;3777;48.722;8.110;2023-09-08T04:49:26;17.70;99.90
7472;DHT22;3777;48.722;8.110;2023-09-08T04:51:55;17.70;99.90
7472;DHT22;3777;48.722;8.110;2023-09-08T04:54:23;17.70;99.90
7472;DHT22;3777;48.722;8.110;2023-09-08T04:56:52;17.70;99.90
7472;DHT22;3777;48.722;8.110;2023-09-08T04:59:19;17.70;99.90
7472;DHT22;3777;48.722;8.110;2023-09-08T05:01:48;17.70;99.90
7472;DHT22;3777;48.722;8.110;2023-09-08T05:04:17;17.70;99.90
7472;DHT22;3777;48.722;8.110;2023-09-08T05:06:45;17.70;99.90
7472;DHT22;3777;48.722;8.110;2023-09-08T05:09:14;17.70;99.90
7472;DHT22;3777;48.722;8.110;2023-09-08T05:11:41;17.60;99.90
7472;DHT22;3777;48.722;8.110;2023-09-08T05:14:08;17.70;99.90
7472;DHT22;3777;48.722;8.110;2023-09-08T05:16:35;17.70;99.90
7472;DHT22;3777;48.722;8.110;2023-09-08T05:19:12;17.70;99.90
7472;DHT22;3777;48.722;8.110;2023-09-08T05:21:39;17.80;99.90
7472;DHT22;3777;48.722;8.110;2023-09-08T05:24:07;17.80;99.90
7472;DHT22;3777;48.722;8.110;2023-09-08T05:26:36;17.80;99.90
7472;DHT22;3777;48.722;8.110;2023-09-08T05:29:04;17.90;99.90
7472;DHT22;3777;48.722;8.110;2023-09-08T05:31:31;17.90;99.90
7472;DHT22;3777;48.722;8.110;2023-09-08T05:33:58;18.00;99.90
7472;DHT22;3777;48.722;8.110;2023-09-08T05:36:25;18.00;99.90
7472;DHT22;3777;48.722;8.110;2023-09-08T05:38:52;18.10;99.90
7472;DHT22;3777;48.722;8.110;2023-09-08T05:41:19;18.10;99.90
7472;DHT22;3777;48.722;8.110;2023-09-08T05:43:48;18.20;99.90
7472;DHT22;3777;48.722;8.110;2023-09-08T05:46:15;18.20;99.90
7472;DHT22;3777;48.722;8.110;2023-09-08T05:48:42;18.30;99.90
7472;DHT22;3777;48.722;8.110;2023-09-08T05:51:09;18.40;99.90
7472;DHT22;3777;48.722;8.110;2023-09-08T05:53:36;18.40;99.90
7472;DHT22;3777;48.722;8.110;2023-09-08T05:56:05;18.50;99.90
7472;DHT22;3777;48.722;8.110;2023-09-08T05:58:32;18.60;99.90
7472;DHT22;3777;48.722;8.110;2023-09-08T06:01:01;18.70;99.90
7472;DHT22;3777;48.722;8.110;2023-09-08T06:03:28;18.80;99.90
7472;DHT22;3777;48.722;8.110;2023-09-08T06:05:55;18.90;99.90
7472;DHT22;3777;48.722;8.110;2023-09-08T06:08:22;19.00;99.90
7472;DHT22;3777;48.722;8.110;2023-09-08T06:10:50;19.10;99.90
7472;DHT22;3777;48.722;8.110;2023-09-08T06:13:17;19.20;99.90
7472;DHT22;3777;48.722;8.110;2023-09-08T06:15:44;19.40;99.90
7472;DHT22;3777;48.722;8.110;2023-09-08T06:18:12;19.50;99.90
7472;DHT22;3777;48.722;8.110;2023-09-08T06:20:44;19.60;99.90
7472;DHT22;3777;48.722;8.110;2023-09-08T06:23:11;19.80;99.90
7472;DHT22;3777;48.722;8.110;2023-09-08T06:25:38;19.90;99.90
7472;DHT22;3777;48.722;8.110;2023-09-08T06:28:05;20.10;99.90
7472;DHT22;3777;48.722;8.110;2023-09-08T06:30:32;20.20;99.90
7472;DHT22;3777;48.722;8.110;2023-09-08T06:32:59;20.30;99.90
7472;DHT22;3777;48.722;8.110;2023-09-08T06:35:29;20.40;99.90
7472;DHT22;3777;48.722;8.110;2023-09-08T06:37:56;20.60;99.90
7472;DHT22;3777;48.722;8.110;2023-09-08T06:40:24;20.60;99.90
7472;DHT22;3777;48.722;8.110;2023-09-08T06:42:51;20.80;99.90
7472;DHT22;3777;48.722;8.110;2023-09-08T06:45:18;20.90;99.90
7472;DHT22;3777;48.722;8.110;2023-09-08T06:47:45;20.90;99.90
7472;DHT22;3777;48.722;8.110;2023-09-08T06:50:12;20.90;99.90
7472;DHT22;3777;48.722;8.110;2023-09-08T06:52:40;21.10;99.90
7472;DHT22;3777;48.722;8.110;2023-09-08T06:55:07;21.20;99.90
7472;DHT22;3777;48.722;8.110;2023-09-08T06:57:35;21.30;99.90
7472;DHT22;3777;48.722;8.110;2023-09-08T07:00:02;21.40;99.90
7472;DHT22;3777;48.722;8.110;2023-09-08T07:02:33;21.50;99.90
7472;DHT22;3777;48.722;8.110;2023-09-08T07:05:00;21.50;99.90
7472;DHT22;3777;48.722;8.110;2023-09-08T07:07:32;21.50;99.90
7472;DHT22;3777;48.722;8.110;2023-09-08T07:10:00;21.60;99.90
7472;DHT22;3777;48.722;8.110;2023-09-08T07:12:27;21.70;99.90
7472;DHT22;3777;48.722;8.110;2023-09-08T07:14:54;21.90;99.90
7472;DHT22;3777;48.722;8.110;2023-09-08T07:17:21;22.10;99.90
7472;DHT22;3777;48.722;8.110;2023-09-08T07:19:49;22.10;99.90
7472;DHT22;3777;48.722;8.110;2023-09-08T07:22:16;22.30;99.90
7472;DHT22;3777;48.722;8.110;2023-09-08T07:24:44;22.40;99.90
7472;DHT22;3777;48.722;8.110;2023-09-08T07:27:12;22.60;99.90
7472;DHT22;3777;48.722;8.110;2023-09-08T07:29:40;22.70;99.90
7472;DHT22;3777;48.722;8.110;2023-09-08T07:32:07;22.80;99.90
7472;DHT22;3777;48.722;8.110;2023-09-08T07:34:34;22.90;99.90
7472;DHT22;3777;48.722;8.110;2023-09-08T07:37:01;23.00;99.90
7472;DHT22;3777;48.722;8.110;2023-09-08T07:39:28;23.10;99.90
7472;DHT22;3777;48.722;8.110;2023-09-08T07:41:55;23.10;99.90
7472;DHT22;3777;48.722;8.110;2023-09-08T07:44:24;23.20;99.90
7472;DHT22;3777;48.722;8.110;2023-09-08T07:46:51;23.30;99.90
7472;DHT22;3777;48.722;8.110;2023-09-08T07:49:18;23.40;99.90
7472;DHT22;3777;48.722;8.110;2023-09-08T07:51:45;23.50;99.90
7472;DHT22;3777;48.722;8.110;2023-09-08T07:54:12;23.50;99.90
7472;DHT22;3777;48.722;8.110;2023-09-08T07:56:39;23.60;99.90
7472;DHT22;3777;48.722;8.110;2023-09-08T07:59:07;23.70;99.90
7472;DHT22;3777;48.722;8.110;2023-09-08T08:01:35;23.70;99.90
7472;DHT22;3777;48.722;8.110;2023-09-08T08:04:02;23.80;99.90
7472;DHT22;3777;48.722;8.110;2023-09-08T08:06:31;24.00;99.90
7472;DHT22;3777;48.722;8.110;2023-09-08T08:08:58;24.10;99.90
7472;DHT22;3777;48.722;8.110;2023-09-08T08:11:25;24.30;99.90
7472;DHT22;3777;48.722;8.110;2023-09-08T08:13:52;24.40;99.90
7472;DHT22;3777;48.722;8.110;2023-09-08T08:16:19;24.50;99.90
7472;DHT22;3777;48.722;8.110;2023-09-08T08:18:48;24.70;99.90
7472;DHT22;3777;48.722;8.110;2023-09-08T08:21:15;24.80;99.90
7472;DHT22;3777;48.722;8.110;2023-09-08T08:23:42;24.80;99.90
7472;DHT22;3777;48.722;8.110;2023-09-08T08:26:09;24.90;99.90
7472;DHT22;3777;48.722;8.110;2023-09-08T08:28:37;25.00;99.90
7472;DHT22;3777;48.722;8.110;2023-09-08T08:31:04;24.80;99.90
7472;DHT22;3777;48.722;8.110;2023-09-08T08:33:31;24.80;99.90
7472;DHT22;3777;48.722;8.110;2023-09-08T08:35:59;25.10;99.90
7472;DHT22;3777;48.722;8.110;2023-09-08T08:38:27;25.50;99.90
7472;DHT22;3777;48.722;8.110;2023-09-08T08:40:54;25.50;99.90
7472;DHT22;3777;48.722;8.110;2023-09-08T08:43:21;25.60;99.90
7472;DHT22;3777;48.722;8.110;2023-09-08T08:45:50;25.70;99.90
7472;DHT22;3777;48.722;8.110;2023-09-08T08:48:20;25.90;99.90
7472;DHT22;3777;48.722;8.110;2023-09-08T08:50:50;26.10;99.90
7472;DHT22;3777;48.722;8.110;2023-09-08T08:53:21;26.40;99.90
7472;DHT22;3777;48.722;8.110;2023-09-08T08:55:49;26.60;99.90
7472;DHT22;3777;48.722;8.110;2023-09-08T08:58:18;26.70;99.90
7472;DHT22;3777;48.722;8.110;2023-09-08T09:00:51;27.00;99.90
7472;DHT22;3777;48.722;8.110;2023-09-08T09:03:20;27.10;99.90
7472;DHT22;3777;48.722;8.110;2023-09-08T09:05:47;27.30;99.90
7472;DHT22;3777;48.722;8.110;2023-09-08T09:08:15;27.50;99.90
7472;DHT22;3777;48.722;8.110;2023-09-08T09:10:44;27.60;99.90
7472;DHT22;3777;48.722;8.110;2023-09-08T09:13:11;27.90;99.90
7472;DHT22;3777;48.722;8.110;2023-09-08T09:15:38;28.40;99.90
7472;DHT22;3777;48.722;8.110;2023-09-08T09:18:06;28.70;99.90
7472;DHT22;3777;48.722;8.110;2023-09-08T09:20:33;29.80;99.90
7472;DHT22;3777;48.722;8.110;2023-09-08T09:23:01;30.90;99.90
7472;DHT22;3777;48.722;8.110;2023-09-08T09:25:29;32.20;99.90
7472;DHT22;3777;48.722;8.110;2023-09-08T09:27:59;33.50;99.90
7472;DHT22;3777;48.722;8.110;2023-09-08T09:30:27;34.40;99.90
7472;DHT22;3777;48.722;8.110;2023-09-08T09:33:00;35.00;99.90
7472;DHT22;3777;48.722;8.110;2023-09-08T09:35:40;35.80;99.90
7472;DHT22;3777;48.722;8.110;2023-09-08T09:38:07;36.60;99.90
7472;DHT22;3777;48.722;8.110;2023-09-08T09:40:35;37.20;99.90
7472;DHT22;3777;48.722;8.110;2023-09-08T09:43:04;37.70;98.90
7472;DHT22;3777;48.722;8.110;2023-09-08T09:45:33;38.20;97.30
7472;DHT22;3777;48.722;8.110;2023-09-08T09:48:00;38.30;93.80
7472;DHT22;3777;48.722;8.110;2023-09-08T09:50:29;37.80;94.20
7472;DHT22;3777;48.722;8.110;2023-09-08T09:52:58;37.30;93.30
7472;DHT22;3777;48.722;8.110;2023-09-08T09:55:26;37.00;94.60
7472;DHT22;3777;48.722;8.110;2023-09-08T09:57:56;36.60;94.00
7472;DHT22;3777;48.722;8.110;2023-09-08T10:00:25;36.30;94.90
7472;DHT22;3777;48.722;8.110;2023-09-08T10:02:54;35.80;95.80
7472;DHT22;3777;48.722;8.110;2023-09-08T10:05:21;34.70;96.20
7472;DHT22;3777;48.722;8.110;2023-09-08T10:07:48;34.00;97.60
7472;DHT22;3777;48.722;8.110;2023-09-08T10:10:16;34.40;98.50
7472;DHT22;3777;48.722;8.110;2023-09-08T10:12:44;34.90;97.90
7472;DHT22;3777;48.722;8.110;2023-09-08T10:15:12;35.60;97.30
7472;DHT22;3777;48.722;8.110;2023-09-08T10:17:44;35.30;96.70
7472;DHT22;3777;48.722;8.110;2023-09-08T10:20:11;35.00;96.00
7472;DHT22;3777;48.722;8.110;2023-09-08T10:22:42;35.70;97.30
7472;DHT22;3777;48.722;8.110;2023-09-08T10:25:12;35.40;98.40
7472;DHT22;3777;48.722;8.110;2023-09-08T10:27:41;36.00;95.00
7472;DHT22;3777;48.722;8.110;2023-09-08T10:30:10;36.60;95.20
7472;DHT22;3777;48.722;8.110;2023-09-08T10:32:40;38.00;93.50
7472;DHT22;3777;48.722;8.110;2023-09-08T10:35:09;38.90;93.00
7472;DHT22;3777;48.722;8.110;2023-09-08T10:37:36;39.20;90.70
7472;DHT22;3777;48.722;8.110;2023-09-08T10:40:23;40.30;90.20
7472;DHT22;3777;48.722;8.110;2023-09-08T10:43:06;41.20;83.70
7472;DHT22;3777;48.722;8.110;2023-09-08T10:45:33;41.90;81.50
7472;DHT22;3777;48.722;8.110;2023-09-08T10:48:01;42.40;74.90
7472;DHT22;3777;48.722;8.110;2023-09-08T10:50:33;42.60;70.90
7472;DHT22;3777;48.722;8.110;2023-09-08T10:53:14;42.90;69.80
7472;DHT22;3777;48.722;8.110;2023-09-08T10:55:42;42.90;65.50
7472;DHT22;3777;48.722;8.110;2023-09-08T10:58:18;42.80;64.60
7472;DHT22;3777;48.722;8.110;2023-09-08T11:00:47;42.50;65.70
7472;DHT22;3777;48.722;8.110;2023-09-08T11:03:41;42.70;64.20
7472;DHT22;3777;48.722;8.110;2023-09-08T11:06:09;42.70;61.10
7472;DHT22;3777;48.722;8.110;2023-09-08T11:08:40;42.50;60.80
7472;DHT22;3777;48.722;8.110;2023-09-08T11:11:07;42.50;58.70
7472;DHT22;3777;48.722;8.110;2023-09-08T11:13:34;42.30;59.60
7472;DHT22;3777;48.722;8.110;2023-09-08T11:16:01;42.20;58.50
7472;DHT22;3777;48.722;8.110;2023-09-08T11:18:31;42.00;59.00
7472;DHT22;3777;48.722;8.110;2023-09-08T11:21:07;41.60;59.20
7472;DHT22;3777;48.722;8.110;2023-09-08T11:23:34;41.50;59.90
7472;DHT22;3777;48.722;8.110;2023-09-08T11:26:02;41.60;62.70
7472;DHT22;3777;48.722;8.110;2023-09-08T11:28:29;41.20;62.90
7472;DHT22;3777;48.722;8.110;2023-09-08T11:30:56;40.50;62.40
7472;DHT22;3777;48.722;8.110;2023-09-08T11:33:23;39.30;62.60
7472;DHT22;3777;48.722;8.110;2023-09-08T11:35:53;38.20;66.20
7472;DHT22;3777;48.722;8.110;2023-09-08T11:38:24;36.80;70.20
7472;DHT22;3777;48.722;8.110;2023-09-08T11:40:52;35.70;73.50
7472;DHT22;3777;48.722;8.110;2023-09-08T11:43:19;35.00;77.30
7472;DHT22;3777;48.722;8.110;2023-09-08T11:45:46;34.30;83.40
7472;DHT22;3777;48.722;8.110;2023-09-08T11:48:14;33.70;87.80
7472;DHT22;3777;48.722;8.110;2023-09-08T11:50:42;33.40;90.00
7472;DHT22;3777;48.722;8.110;2023-09-08T11:53:11;33.10;90.90
7472;DHT22;3777;48.722;8.110;2023-09-08T11:55:38;32.90;90.90
7472;DHT22;3777;48.722;8.110;2023-09-08T11:58:05;32.60;92.10
7472;DHT22;3777;48.722;8.110;2023-09-08T12:00:33;32.40;93.70
7472;DHT22;3777;48.722;8.110;2023-09-08T12:03:10;32.30;96.90
7472;DHT22;3777;48.722;8.110;2023-09-08T12:05:38;32.00;95.60
7472;DHT22;3777;48.722;8.110;2023-09-08T12:08:06;31.90;96.40
7472;DHT22;3777;48.722;8.110;2023-09-08T12:10:39;31.90;96.30
7472;DHT22;3777;48.722;8.110;2023-09-08T12:13:07;31.60;97.20
7472;DHT22;3777;48.722;8.110;2023-09-08T12:15:36;31.40;97.30
7472;DHT22;3777;48.722;8.110;2023-09-08T12:18:05;31.40;97.50
7472;DHT22;3777;48.722;8.110;2023-09-08T12:20:32;31.30;99.90
7472;DHT22;3777;48.722;8.110;2023-09-08T12:23:01;31.40;99.20
7472;DHT22;3777;48.722;8.110;2023-09-08T12:25:28;31.40;98.60
7472;DHT22;3777;48.722;8.110;2023-09-08T12:27:58;31.40;97.30
7472;DHT22;3777;48.722;8.110;2023-09-08T12:30:26;31.20;99.90
7472;DHT22;3777;48.722;8.110;2023-09-08T12:32:57;31.20;99.90
7472;DHT22;3777;48.722;8.110;2023-09-08T12:35:25;31.20;99.50
7472;DHT22;3777;48.722;8.110;2023-09-08T12:37:56;31.10;99.90
7472;DHT22;3777;48.722;8.110;2023-09-08T12:40:23;31.10;99.70
7472;DHT22;3777;48.722;8.110;2023-09-08T12:42:50;31.10;99.90
7472;DHT22;3777;48.722;8.110;2023-09-08T12:45:20;31.00;99.90
7472;DHT22;3777;48.722;8.110;2023-09-08T12:47:48;30.80;99.90
7472;DHT22;3777;48.722;8.110;2023-09-08T12:50:15;30.50;99.90
7472;DHT22;3777;48.722;8.110;2023-09-08T12:52:42;30.50;99.90
7472;DHT22;3777;48.722;8.110;2023-09-08T12:55:09;30.50;99.90
7472;DHT22;3777;48.722;8.110;2023-09-08T12:57:37;30.50;99.90
7472;DHT22;3777;48.722;8.110;2023-09-08T13:00:05;30.50;99.90
7472;DHT22;3777;48.722;8.110;2023-09-08T13:02:34;30.50;99.90
7472;DHT22;3777;48.722;8.110;2023-09-08T13:05:01;30.40;99.90
7472;DHT22;3777;48.722;8.110;2023-09-08T13:07:28;30.40;99.90
7472;DHT22;3777;48.722;8.110;2023-09-08T13:09:56;30.30;99.90
7472;DHT22;3777;48.722;8.110;2023-09-08T13:12:23;30.40;99.90
7472;DHT22;3777;48.722;8.110;2023-09-08T13:14:50;30.50;99.90
7472;DHT22;3777;48.722;8.110;2023-09-08T13:17:17;30.50;99.90
7472;DHT22;3777;48.722;8.110;2023-09-08T13:19:45;30.50;99.90
7472;DHT22;3777;48.722;8.110;2023-09-08T13:22:14;30.50;99.90
7472;DHT22;3777;48.722;8.110;2023-09-08T13:24:41;30.40;99.90
7472;DHT22;3777;48.722;8.110;2023-09-08T13:27:08;30.40;99.90
7472;DHT22;3777;48.722;8.110;2023-09-08T13:29:35;30.40;99.90
7472;DHT22;3777;48.722;8.110;2023-09-08T13:32:03;30.30;99.90
7472;DHT22;3777;48.722;8.110;2023-09-08T13:34:30;30.20;99.90
7472;DHT22;3777;48.722;8.110;2023-09-08T13:37:00;30.20;99.90
7472;DHT22;3777;48.722;8.110;2023-09-08T13:39:27;30.10;99.90
7472;DHT22;3777;48.722;8.110;2023-09-08T13:41:58;30.10;99.90
7472;DHT22;3777;48.722;8.110;2023-09-08T13:44:26;30.10;99.90
7472;DHT22;3777;48.722;8.110;2023-09-08T13:46:54;30.10;99.90
7472;DHT22;3777;48.722;8.110;2023-09-08T13:49:22;30.10;99.90
7472;DHT22;3777;48.722;8.110;2023-09-08T13:51:49;30.10;99.90
7472;DHT22;3777;48.722;8.110;2023-09-08T13:54:19;30.10;99.90
7472;DHT22;3777;48.722;8.110;2023-09-08T13:56:57;30.10;99.90
7472;DHT22;3777;48.722;8.110;2023-09-08T13:59:26;30.10;99.90
7472;DHT22;3777;48.722;8.110;2023-09-08T14:01:54;30.10;99.90
7472;DHT22;3777;48.722;8.110;2023-09-08T14:04:21;30.10;99.90
7472;DHT22;3777;48.722;8.110;2023-09-08T14:06:48;30.10;99.90
7472;DHT22;3777;48.722;8.110;2023-09-08T14:09:16;30.10;99.90
7472;DHT22;3777;48.722;8.110;2023-09-08T14:11:45;30.00;99.90
7472;DHT22;3777;48.722;8.110;2023-09-08T14:14:12;29.90;99.90
7472;DHT22;3777;48.722;8.110;2023-09-08T14:16:39;29.90;99.90
7472;DHT22;3777;48.722;8.110;2023-09-08T14:19:06;29.90;99.90
7472;DHT22;3777;48.722;8.110;2023-09-08T14:21:33;29.90;99.90
7472;DHT22;3777;48.722;8.110;2023-09-08T14:24:03;29.90;99.90
7472;DHT22;3777;48.722;8.110;2023-09-08T14:26:30;29.90;99.90
7472;DHT22;3777;48.722;8.110;2023-09-08T14:28:58;29.90;99.90
7472;DHT22;3777;48.722;8.110;2023-09-08T14:31:25;29.90;99.90
7472;DHT22;3777;48.722;8.110;2023-09-08T14:33:52;29.90;99.90
7472;DHT22;3777;48.722;8.110;2023-09-08T14:36:20;29.90;99.90
7472;DHT22;3777;48.722;8.110;2023-09-08T14:38:48;29.90;99.90
7472;DHT22;3777;48.722;8.110;2023-09-08T14:41:15;29.90;99.90
7472;DHT22;3777;48.722;8.110;2023-09-08T14:43:42;29.90;99.90
7472;DHT22;3777;48.722;8.110;2023-09-08T14:46:10;29.90;99.90
7472;DHT22;3777;48.722;8.110;2023-09-08T14:48:37;29.80;99.90
7472;DHT22;3777;48.722;8.110;2023-09-08T14:51:04;29.90;99.90
7472;DHT22;3777;48.722;8.110;2023-09-08T14:53:31;30.10;99.90
7472;DHT22;3777;48.722;8.110;2023-09-08T14:55:58;30.10;99.90
7472;DHT22;3777;48.722;8.110;2023-09-08T14:58:25;30.00;99.90
7472;DHT22;3777;48.722;8.110;2023-09-08T15:00:58;30.00;99.90
7472;DHT22;3777;48.722;8.110;2023-09-08T15:03:30;29.90;99.90
7472;DHT22;3777;48.722;8.110;2023-09-08T15:05:58;29.90;99.90
7472;DHT22;3777;48.722;8.110;2023-09-08T15:08:25;29.80;99.90
7472;DHT22;3777;48.722;8.110;2023-09-08T15:10:52;29.80;99.90
7472;DHT22;3777;48.722;8.110;2023-09-08T15:13:19;29.80;99.90
7472;DHT22;3777;48.722;8.110;2023-09-08T15:15:46;29.80;99.90
7472;DHT22;3777;48.722;8.110;2023-09-08T15:18:13;29.80;99.90
7472;DHT22;3777;48.722;8.110;2023-09-08T15:20:51;29.70;99.90
7472;DHT22;3777;48.722;8.110;2023-09-08T15:23:18;29.70;99.90
7472;DHT22;3777;48.722;8.110;2023-09-08T15:25:51;29.80;99.90
7472;DHT22;3777;48.722;8.110;2023-09-08T15:28:18;29.70;99.90
7472;DHT22;3777;48.722;8.110;2023-09-08T15:30:47;29.70;99.90
7472;DHT22;3777;48.722;8.110;2023-09-08T15:33:14;29.70;99.90
7472;DHT22;3777;48.722;8.110;2023-09-08T15:35:41;29.70;99.90
7472;DHT22;3777;48.722;8.110;2023-09-08T15:38:09;29.60;99.90
7472;DHT22;3777;48.722;8.110;2023-09-08T15:40:38;29.60;99.90
7472;DHT22;3777;48.722;8.110;2023-09-08T15:43:05;29.60;99.90
7472;DHT22;3777;48.722;8.110;2023-09-08T15:45:32;29.60;99.90
7472;DHT22;3777;48.722;8.110;2023-09-08T15:47:59;29.60;99.90
7472;DHT22;3777;48.722;8.110;2023-09-08T15:50:26;29.60;99.90
7472;DHT22;3777;48.722;8.110;2023-09-08T15:52:53;29.60;99.90
7472;DHT22;3777;48.722;8.110;2023-09-08T15:55:21;29.60;99.90
7472;DHT22;3777;48.722;8.110;2023-09-08T15:57:48;29.60;99.90
7472;DHT22;3777;48.722;8.110;2023-09-08T16:00:16;29.60;99.90
7472;DHT22;3777;48.722;8.110;2023-09-08T16:02:43;29.50;99.90
7472;DHT22;3777;48.722;8.110;2023-09-08T16:05:10;29.50;99.90
7472;DHT22;3777;48.722;8.110;2023-09-08T16:07:37;29.50;99.90